CheckWX is a tool to help pilots better visualize weather data.  It is not intended as a substitute for an official pre-flight weather briefing.

21:17:06 UTC

EKVD METAR
Kolding Vamdrup Airport
Kolding / Vamdrup, Denmark
Current

27 mins ago

EKVD 232050Z AUTO 23007KT //// ///////// 10/08 Q1014
Observed
May-23 @ 20:50 UTC
Wind
  • 230° at 7 KTS
Visibility
Temperature
10°C / 50°F
Dewpoint
C / 46°F
Humidity
88%
Altimeter
29.94" Hg
Pressure
1013.92 hPa
Previous

57 mins ago

EKVD 232020Z AUTO 22008KT //// ///////// 11/08 Q1014
Observed
May-23 @ 20:20 UTC
Wind
  • 220° at 8 KTS
Visibility
Temperature
11°C / 52°F
Dewpoint
C / 46°F
Humidity
82%
Altimeter
29.94" Hg
Pressure
1013.92 hPa
Previous

2 hours ago

EKVD 231920Z AUTO 25010KT //// ///////// 13/08 Q1014
Observed
May-23 @ 19:20 UTC
Wind
  • 250° at 10 KTS
Visibility
Temperature
13°C / 55°F
Dewpoint
C / 46°F
Humidity
72%
Altimeter
29.94" Hg
Pressure
1013.92 hPa